Time;durP1;ratioP1;P1;durP2;ratioP2;P2;SDS_P1;SDS_P2;PMS_P1;PMS_P2;Temp;Humidity;BMP_temperature;BMP_pressure;BME280_temperature;BME280_humidity;BME280_pressure;Samples;Min_cycle;Max_cycle;Signal;HPM_P1;HPM_P2
2021/05/12 00:01:33;;;;;;;13.20;4.55;;;16.90;99.90;;;;;;5029702;28;20080;-79
2021/05/12 00:03:59;;;;;;;9.63;3.67;;;16.80;99.90;;;;;;5037441;28;20022;-79
2021/05/12 00:06:25;;;;;;;11.07;4.63;;;16.80;99.90;;;;;;5037613;28;20116;-80
2021/05/12 00:08:51;;;;;;;11.45;4.97;;;16.90;99.90;;;;;;5019976;28;20025;-79
2021/05/12 00:11:17;;;;;;;7.35;3.80;;;16.90;99.90;;;;;;5037652;28;20025;-80
2021/05/12 00:13:44;;;;;;;11.13;4.57;;;16.90;99.90;;;;;;5034666;28;20048;-79
2021/05/12 00:16:10;;;;;;;11.90;5.07;;;16.90;99.90;;;;;;5034468;28;20553;-79
2021/05/12 00:18:39;;;;;;;16.13;4.05;;;16.90;99.90;;;;;;5034871;28;20068;-77
2021/05/12 00:21:07;;;;;;;7.68;3.80;;;16.90;99.90;;;;;;5034246;28;20042;-78
2021/05/12 00:23:49;;;;;;;6.28;3.97;;;16.80;99.90;;;;;;5034471;28;20037;-80
2021/05/12 00:26:15;;;;;;;10.27;3.85;;;16.80;99.90;;;;;;5016070;28;20468;-78
2021/05/12 00:28:40;;;;;;;5.63;2.92;;;16.70;99.90;;;;;;5034319;28;20061;-79
2021/05/12 00:31:06;;;;;;;6.88;2.85;;;16.70;99.90;;;;;;5034496;28;20034;-79
2021/05/12 00:33:32;;;;;;;7.28;3.90;;;16.70;99.90;;;;;;5034352;28;20049;-80
2021/05/12 00:35:57;;;;;;;3.92;2.58;;;16.70;99.90;;;;;;5033642;28;20406;-79
2021/05/12 00:38:23;;;;;;;11.68;3.10;;;16.70;99.90;;;;;;5033577;28;20036;-79
2021/05/12 00:40:49;;;;;;;11.10;2.25;;;16.70;99.90;;;;;;5034438;28;20069;-78
2021/05/12 00:43:14;;;;;;;4.15;2.33;;;16.70;99.90;;;;;;5034140;28;20034;-79
2021/05/12 00:45:40;;;;;;;6.25;2.42;;;16.80;99.90;;;;;;5033956;28;20104;-80
2021/05/12 00:48:07;;;;;;;8.70;2.70;;;16.80;99.90;;;;;;5033305;28;20549;-78
2021/05/12 00:50:32;;;;;;;7.78;3.15;;;16.80;99.90;;;;;;5033712;28;20434;-80
2021/05/12 00:53:00;;;;;;;10.23;3.17;;;16.90;99.90;;;;;;5015327;28;20033;-78
2021/05/12 00:55:26;;;;;;;8.52;2.70;;;16.90;99.90;;;;;;5033726;28;20022;-79
2021/05/12 00:57:52;;;;;;;11.75;2.53;;;16.90;99.90;;;;;;5033589;28;20068;-79
2021/05/12 01:00:19;;;;;;;7.30;2.55;;;17.00;99.90;;;;;;5031642;28;20030;-79
2021/05/12 01:02:45;;;;;;;7.03;3.20;;;17.00;99.90;;;;;;5034000;28;20113;-77
2021/05/12 01:05:22;;;;;;;8.90;2.70;;;17.00;99.90;;;;;;5032227;28;20125;-77
2021/05/12 01:07:48;;;;;;;6.95;2.50;;;17.00;99.90;;;;;;5033969;28;20033;-77
2021/05/12 01:10:14;;;;;;;6.30;2.92;;;17.00;99.90;;;;;;5033002;28;20064;-80
2021/05/12 01:12:39;;;;;;;8.48;2.67;;;17.10;99.90;;;;;;5046773;28;20033;-78
2021/05/12 01:15:06;;;;;;;4.47;2.50;;;17.10;99.90;;;;;;5033872;28;20402;-77
2021/05/12 01:17:31;;;;;;;6.00;2.80;;;17.10;99.90;;;;;;5033482;28;20149;-77
2021/05/12 01:19:57;;;;;;;7.75;2.97;;;17.10;99.90;;;;;;5033503;28;20068;-78
2021/05/12 01:22:23;;;;;;;4.60;2.53;;;17.10;99.90;;;;;;5033390;28;20033;-77
2021/05/12 01:24:48;;;;;;;4.78;2.33;;;17.10;99.90;;;;;;5032596;28;20048;-79
2021/05/12 01:27:14;;;;;;;7.63;2.78;;;17.10;99.90;;;;;;5033101;28;20061;-79
2021/05/12 01:29:40;;;;;;;3.47;1.88;;;17.10;99.90;;;;;;5032884;28;20532;-78
2021/05/12 01:32:07;;;;;;;4.85;2.58;;;17.10;99.90;;;;;;5033051;28;20045;-78
2021/05/12 01:34:32;;;;;;;12.48;2.90;;;17.00;99.90;;;;;;5032455;28;20228;-78
2021/05/12 01:36:58;;;;;;;7.80;2.17;;;17.00;99.90;;;;;;5032812;28;20144;-80
2021/05/12 01:39:24;;;;;;;10.07;2.53;;;16.90;99.90;;;;;;5032811;28;20026;-80
2021/05/12 01:41:50;;;;;;;2.88;2.00;;;16.80;99.90;;;;;;5033080;28;20041;-78
2021/05/12 01:44:16;;;;;;;4.15;2.55;;;16.80;99.90;;;;;;5032978;28;20033;-80
2021/05/12 01:46:46;;;;;;;3.63;2.28;;;16.80;99.90;;;;;;5046487;28;20044;-79
2021/05/12 01:49:12;;;;;;;3.30;2.30;;;16.80;99.90;;;;;;5032898;28;20132;-80
2021/05/12 01:51:39;;;;;;;3.47;2.03;;;16.80;99.90;;;;;;5032663;28;20030;-79
2021/05/12 01:54:08;;;;;;;5.35;2.58;;;16.80;99.90;;;;;;5032751;28;20540;-79
2021/05/12 01:56:35;;;;;;;6.45;2.80;;;16.80;99.90;;;;;;5032407;28;20050;-78
2021/05/12 01:59:01;;;;;;;4.75;2.38;;;16.90;99.90;;;;;;5032423;28;20080;-79
2021/05/12 02:01:28;;;;;;;8.65;2.88;;;16.80;99.90;;;;;;5012615;28;20045;-79
2021/05/12 02:03:54;;;;;;;8.40;2.80;;;16.80;99.90;;;;;;5014315;28;20371;-80
2021/05/12 02:06:20;;;;;;;4.07;2.17;;;16.80;99.90;;;;;;5032048;28;20035;-79
2021/05/12 02:08:45;;;;;;;6.10;2.38;;;16.90;99.90;;;;;;5031951;28;20038;-80
2021/05/12 02:11:11;;;;;;;7.78;2.45;;;16.90;99.90;;;;;;5032285;28;20041;-78
2021/05/12 02:13:37;;;;;;;4.15;2.58;;;16.90;99.90;;;;;;5017941;28;20087;-80
2021/05/12 02:16:05;;;;;;;3.95;2.60;;;16.90;99.90;;;;;;5017682;28;20539;-77
2021/05/12 02:18:31;;;;;;;5.63;2.67;;;16.90;99.90;;;;;;5031871;28;20501;-79
2021/05/12 02:20:57;;;;;;;10.40;3.05;;;16.80;99.90;;;;;;5032099;28;20053;-79
2021/05/12 02:23:24;;;;;;;5.03;3.03;;;16.80;99.90;;;;;;5031897;28;20396;-79
2021/05/12 02:25:50;;;;;;;6.50;3.05;;;16.70;99.90;;;;;;5032018;28;20026;-79
2021/05/12 02:28:16;;;;;;;5.25;2.83;;;16.70;99.90;;;;;;5009423;28;20045;-80
2021/05/12 02:30:42;;;;;;;4.10;3.00;;;16.70;99.90;;;;;;5006591;28;20073;-80
2021/05/12 02:33:10;;;;;;;4.75;2.95;;;16.70;99.90;;;;;;5020810;28;20026;-80
2021/05/12 02:35:36;;;;;;;6.60;2.78;;;16.80;99.90;;;;;;5029326;28;20048;-79
2021/05/12 02:38:03;;;;;;;8.15;2.47;;;16.80;99.90;;;;;;5020990;28;20583;-80
2021/05/12 02:40:29;;;;;;;6.60;2.80;;;16.80;99.90;;;;;;5020210;28;20026;-80
2021/05/12 02:42:56;;;;;;;8.02;2.50;;;16.80;99.90;;;;;;5031667;28;20021;-80
2021/05/12 02:45:22;;;;;;;8.93;2.50;;;16.80;99.90;;;;;;5028363;28;20032;-80
2021/05/12 02:47:58;;;;;;;3.92;2.10;;;16.80;99.90;;;;;;5024508;28;20112;-80
2021/05/12 02:50:32;;;;;;;8.20;3.10;;;16.80;99.90;;;;;;5017618;28;20033;-80
2021/05/12 02:52:59;;;;;;;4.82;2.50;;;16.80;99.90;;;;;;5031878;28;20394;-80
2021/05/12 02:55:26;;;;;;;4.40;2.10;;;16.80;99.90;;;;;;5017281;28;20064;-80
2021/05/12 02:57:53;;;;;;;4.00;2.35;;;16.80;99.90;;;;;;5031995;28;20033;-79
2021/05/12 03:00:20;;;;;;;12.05;4.22;;;16.80;99.90;;;;;;5031517;28;20084;-80
2021/05/12 03:02:47;;;;;;;3.65;2.67;;;16.80;99.90;;;;;;5031442;28;20043;-80
2021/05/12 03:05:14;;;;;;;3.47;2.30;;;16.80;99.90;;;;;;5023168;28;20490;-80
2021/05/12 03:07:40;;;;;;;4.22;1.65;;;16.80;99.90;;;;;;5025446;28;20482;-80
2021/05/12 03:10:09;;;;;;;6.32;1.50;;;16.80;99.90;;;;;;5020280;28;20061;-79
2021/05/12 03:12:35;;;;;;;4.63;1.55;;;16.70;99.90;;;;;;5027166;28;20026;-79
2021/05/12 03:15:00;;;;;;;5.22;1.55;;;16.70;99.90;;;;;;5013588;28;20034;-80
2021/05/12 03:17:26;;;;;;;6.32;1.52;;;16.70;99.90;;;;;;5031186;28;20067;-80
2021/05/12 03:19:52;;;;;;;7.38;1.23;;;16.60;99.90;;;;;;5019536;28;20033;-80
2021/05/12 03:22:18;;;;;;;5.75;1.00;;;16.60;99.90;;;;;;5009826;28;20053;-79
2021/05/12 03:24:44;;;;;;;2.55;1.50;;;16.60;99.90;;;;;;5022039;28;20021;-80
2021/05/12 03:27:09;;;;;;;3.53;1.20;;;16.50;99.90;;;;;;5021710;28;20478;-80
2021/05/12 03:29:35;;;;;;;4.43;1.30;;;16.50;99.90;;;;;;5029891;28;20022;-79
2021/05/12 03:32:01;;;;;;;5.32;1.05;;;16.60;99.90;;;;;;5023085;28;20044;-80
2021/05/12 03:34:26;;;;;;;9.15;1.55;;;16.60;99.90;;;;;;5011661;28;20513;-79
2021/05/12 03:36:52;;;;;;;5.00;1.40;;;16.60;99.90;;;;;;5030740;28;20095;-79
2021/05/12 03:39:18;;;;;;;4.75;1.40;;;16.60;99.90;;;;;;5030715;28;20033;-79
2021/05/12 03:41:44;;;;;;;4.30;1.45;;;16.60;99.90;;;;;;5031001;28;20120;-80
2021/05/12 03:44:11;;;;;;;2.88;1.40;;;16.60;99.90;;;;;;5029748;28;20042;-80
2021/05/12 03:46:37;;;;;;;4.25;1.00;;;16.60;99.90;;;;;;5022198;28;20033;-80
2021/05/12 03:49:03;;;;;;;3.60;1.10;;;16.60;99.90;;;;;;5014415;28;20369;-80
2021/05/12 03:51:29;;;;;;;5.50;1.05;;;16.60;99.90;;;;;;5028631;28;20068;-78
2021/05/12 03:53:54;;;;;;;6.88;1.17;;;16.50;99.90;;;;;;5033275;28;20025;-80
2021/05/12 03:56:20;;;;;;;2.53;1.45;;;16.50;99.90;;;;;;5034335;28;20045;-79
2021/05/12 03:58:46;;;;;;;3.90;1.45;;;16.50;99.90;;;;;;5034192;28;20033;-80
2021/05/12 04:01:11;;;;;;;7.30;1.90;;;16.20;99.90;;;;;;5034630;28;20026;-79
2021/05/12 04:03:37;;;;;;;4.47;1.90;;;16.10;99.90;;;;;;5033989;28;20049;-80
2021/05/12 04:06:03;;;;;;;2.88;1.90;;;16.00;99.90;;;;;;5023925;28;20077;-79
2021/05/12 04:08:29;;;;;;;12.07;2.35;;;15.90;99.90;;;;;;5018966;28;20034;-78
2021/05/12 04:10:54;;;;;;;9.20;2.28;;;15.90;99.90;;;;;;5030440;28;20029;-79
2021/05/12 04:13:21;;;;;;;9.73;2.40;;;15.80;99.90;;;;;;5034464;28;20032;-79
2021/05/12 04:15:47;;;;;;;3.95;2.35;;;15.80;99.90;;;;;;5033237;28;20046;-80
2021/05/12 04:18:14;;;;;;;3.65;2.15;;;15.80;99.90;;;;;;5033588;28;20120;-80
2021/05/12 04:20:39;;;;;;;5.32;2.22;;;15.80;99.90;;;;;;5033654;28;20061;-79
2021/05/12 04:23:05;;;;;;;5.25;2.28;;;15.70;99.90;;;;;;5033439;28;20025;-80
2021/05/12 04:25:31;;;;;;;5.47;2.60;;;15.50;99.90;;;;;;5026495;28;20475;-80
2021/05/12 04:27:57;;;;;;;9.02;2.22;;;15.50;99.90;;;;;;5014975;28;20026;-79
2021/05/12 04:30:23;;;;;;;6.07;1.65;;;15.50;99.90;;;;;;5014223;28;20022;-79
2021/05/12 04:32:49;;;;;;;9.57;2.38;;;15.40;99.90;;;;;;5028121;28;20037;-78
2021/05/12 04:35:18;;;;;;;10.68;2.40;;;15.30;99.90;;;;;;5033771;28;20025;-79
2021/05/12 04:37:48;;;;;;;2.72;1.77;;;15.30;99.90;;;;;;5033561;28;20046;-78
2021/05/12 04:40:14;;;;;;;2.50;1.92;;;15.20;99.90;;;;;;5032405;28;20026;-78
2021/05/12 04:42:40;;;;;;;6.18;2.20;;;15.20;99.90;;;;;;5031883;28;20045;-78
2021/05/12 04:45:08;;;;;;;3.20;1.70;;;15.10;99.90;;;;;;5026278;28;20025;-79
2021/05/12 04:47:34;;;;;;;4.45;1.67;;;15.20;99.90;;;;;;5033966;28;20037;-79
2021/05/12 04:50:00;;;;;;;5.30;1.90;;;15.20;99.90;;;;;;5013769;28;20084;-79
2021/05/12 04:52:25;;;;;;;5.63;1.60;;;15.10;99.90;;;;;;5027993;28;20036;-79
2021/05/12 04:54:51;;;;;;;5.70;1.80;;;15.10;99.90;;;;;;5033152;28;20033;-79
2021/05/12 04:57:17;;;;;;;2.97;1.73;;;15.10;99.90;;;;;;5025418;28;20376;-79
2021/05/12 04:59:43;;;;;;;4.13;1.77;;;15.10;99.90;;;;;;5025583;28;20033;-79
2021/05/12 05:02:12;;;;;;;6.78;2.00;;;15.10;99.90;;;;;;5022255;28;20454;-79
2021/05/12 05:04:40;;;;;;;4.68;1.85;;;15.10;99.90;;;;;;5033373;28;20079;-79
2021/05/12 05:07:06;;;;;;;6.30;2.08;;;15.10;99.90;;;;;;5017613;28;20150;-79
2021/05/12 05:09:32;;;;;;;10.65;2.45;;;15.10;99.90;;;;;;5025519;28;20025;-79
2021/05/12 05:11:57;;;;;;;7.70;1.88;;;15.20;99.90;;;;;;5022618;28;20091;-78
2021/05/12 05:14:23;;;;;;;6.38;1.90;;;15.20;99.90;;;;;;5026805;28;20477;-80
2021/05/12 05:16:49;;;;;;;3.33;1.73;;;15.30;99.90;;;;;;5033072;28;20053;-78
2021/05/12 05:19:15;;;;;;;3.47;2.05;;;15.30;99.90;;;;;;5031610;28;20539;-78
2021/05/12 05:21:41;;;;;;;10.82;2.40;;;15.30;99.90;;;;;;5017959;28;20045;-81
2021/05/12 05:24:08;;;;;;;7.28;2.30;;;15.30;99.90;;;;;;5012662;28;20026;-80
2021/05/12 05:26:34;;;;;;;8.13;2.17;;;15.40;99.90;;;;;;5000709;28;20486;-80
2021/05/12 05:29:00;;;;;;;8.82;2.15;;;15.40;99.90;;;;;;5012280;28;20037;-80
2021/05/12 05:31:25;;;;;;;7.45;2.65;;;15.50;99.90;;;;;;5011180;28;20014;-81
2021/05/12 05:33:51;;;;;;;5.82;2.20;;;15.60;99.90;;;;;;5012814;28;20412;-80
2021/05/12 05:36:17;;;;;;;3.97;1.92;;;15.60;99.90;;;;;;5012979;28;20081;-78
2021/05/12 05:38:43;;;;;;;11.98;2.88;;;15.80;99.90;;;;;;5012317;28;20022;-81
2021/05/12 05:41:08;;;;;;;12.88;3.25;;;15.80;99.90;;;;;;5012634;28;20029;-79
2021/05/12 05:43:34;;;;;;;9.00;2.40;;;15.80;99.90;;;;;;5012311;28;20148;-80
2021/05/12 05:46:00;;;;;;;3.72;1.90;;;15.90;99.90;;;;;;5009790;28;20129;-79
2021/05/12 05:48:25;;;;;;;6.40;2.60;;;15.90;99.90;;;;;;5006410;28;20026;-80
2021/05/12 05:50:51;;;;;;;7.93;2.00;;;16.00;99.90;;;;;;5012262;28;20066;-80
2021/05/12 05:53:20;;;;;;;5.30;2.22;;;16.10;99.90;;;;;;5012888;28;20036;-80
2021/05/12 05:55:47;;;;;;;5.55;2.20;;;16.20;99.90;;;;;;5012465;28;20540;-79
2021/05/12 05:58:13;;;;;;;6.47;2.33;;;16.20;99.90;;;;;;5011867;28;20034;-80
2021/05/12 06:00:41;;;;;;;7.95;2.45;;;16.30;99.90;;;;;;5012880;28;20048;-80
2021/05/12 06:03:07;;;;;;;8.80;1.70;;;16.30;99.90;;;;;;5006481;28;20060;-79
2021/05/12 06:05:33;;;;;;;6.45;2.58;;;16.30;99.90;;;;;;5012657;28;20026;-80
2021/05/12 06:07:59;;;;;;;9.52;2.30;;;16.20;99.90;;;;;;5012726;28;20037;-82
2021/05/12 06:10:25;;;;;;;7.85;3.20;;;16.20;99.90;;;;;;5011651;28;20026;-80
2021/05/12 06:12:51;;;;;;;7.45;2.42;;;16.10;99.90;;;;;;5007609;28;20050;-80
2021/05/12 06:15:20;;;;;;;3.13;2.00;;;16.10;99.90;;;;;;5002694;28;20026;-80
2021/05/12 06:17:49;;;;;;;7.35;2.63;;;16.10;99.90;;;;;;5012207;28;20096;-80
2021/05/12 06:20:16;;;;;;;9.48;2.25;;;16.20;99.90;;;;;;5018735;28;20377;-80
2021/05/12 06:22:42;;;;;;;5.85;2.53;;;16.20;99.90;;;;;;5013736;28;20463;-80
2021/05/12 06:25:10;;;;;;;6.22;2.55;;;16.20;99.90;;;;;;5019670;28;20394;-80
2021/05/12 06:27:43;;;;;;;9.13;2.30;;;16.40;99.90;;;;;;5031632;28;20437;-80
2021/05/12 06:30:09;;;;;;;7.57;2.13;;;16.40;99.90;;;;;;5032566;28;20040;-79
2021/05/12 06:32:35;;;;;;;5.43;2.08;;;16.50;99.90;;;;;;5031550;28;20026;-79
2021/05/12 06:35:01;;;;;;;11.18;1.80;;;16.60;99.90;;;;;;5031615;28;20029;-81
2021/05/12 06:37:29;;;;;;;4.95;1.95;;;16.70;99.90;;;;;;5032105;28;20091;-81
2021/05/12 06:39:55;;;;;;;8.27;1.85;;;16.80;99.90;;;;;;5032113;28;20029;-80
2021/05/12 06:42:20;;;;;;;5.22;1.73;;;16.80;99.90;;;;;;5032198;28;20088;-80
2021/05/12 06:44:46;;;;;;;9.57;1.77;;;16.80;99.90;;;;;;5032050;28;20025;-81
2021/05/12 06:47:12;;;;;;;4.90;1.60;;;16.80;99.90;;;;;;5030913;28;20441;-80
2021/05/12 06:49:37;;;;;;;13.25;2.47;;;16.70;99.90;;;;;;5003659;28;20030;-81
2021/05/12 06:52:03;;;;;;;10.32;1.70;;;16.60;99.90;;;;;;5029441;28;20438;-81
2021/05/12 06:54:29;;;;;;;5.28;2.28;;;16.50;99.90;;;;;;5025649;28;20394;-79
2021/05/12 06:56:55;;;;;;;4.43;1.30;;;16.40;99.90;;;;;;5017404;28;20121;-79
2021/05/12 06:59:20;;;;;;;3.53;1.33;;;16.40;99.90;;;;;;5030397;28;20386;-81
2021/05/12 07:01:46;;;;;;;2.55;1.30;;;16.40;99.90;;;;;;5030729;28;20040;-82
2021/05/12 07:04:12;;;;;;;4.95;1.23;;;16.40;99.90;;;;;;5031674;28;20021;-80
2021/05/12 07:06:37;;;;;;;10.07;1.58;;;16.40;99.90;;;;;;5031685;28;20028;-79
2021/05/12 07:09:03;;;;;;;4.50;1.85;;;16.50;99.90;;;;;;5030774;28;20059;-80
2021/05/12 07:11:29;;;;;;;4.30;1.40;;;16.60;99.90;;;;;;5031141;28;20453;-80
2021/05/12 07:13:55;;;;;;;2.60;1.58;;;16.70;99.90;;;;;;5022518;28;20113;-80
2021/05/12 07:16:21;;;;;;;3.63;1.20;;;16.70;99.90;;;;;;5007592;28;20055;-78
2021/05/12 07:18:47;;;;;;;3.70;2.35;;;16.80;99.90;;;;;;5019131;28;20032;-77
2021/05/12 07:21:12;;;;;;;4.50;1.88;;;16.60;99.90;;;;;;5017695;28;20045;-78
2021/05/12 07:23:42;;;;;;;4.95;1.95;;;16.60;99.90;;;;;;5028399;28;20029;-77
2021/05/12 07:26:07;;;;;;;3.83;1.92;;;16.60;99.90;;;;;;5015554;28;20471;-80
2021/05/12 07:28:33;;;;;;;5.50;2.15;;;16.60;99.90;;;;;;5032507;28;20068;-84
2021/05/12 07:30:59;;;;;;;3.83;1.95;;;16.70;99.90;;;;;;5035422;28;20426;-86
2021/05/12 07:33:24;;;;;;;6.20;2.38;;;16.80;99.90;;;;;;5035332;28;20069;-86
2021/05/12 07:35:50;;;;;;;4.38;1.50;;;16.80;99.90;;;;;;5032436;28;20389;-80
2021/05/12 07:38:16;;;;;;;3.45;1.30;;;16.80;99.90;;;;;;5026709;28;20049;-78
2021/05/12 07:40:42;;;;;;;2.80;1.40;;;16.80;99.90;;;;;;5031851;28;20036;-81
2021/05/12 07:43:12;;;;;;;6.57;1.52;;;16.90;99.90;;;;;;5034141;28;20029;-85
2021/05/12 07:45:41;;;;;;;7.50;1.85;;;16.90;99.90;;;;;;5031758;28;20036;-80
2021/05/12 07:48:10;;;;;;;3.25;1.70;;;16.90;99.90;;;;;;5027742;28;20057;-73
2021/05/12 07:50:36;;;;;;;2.40;1.40;;;17.00;99.90;;;;;;5035192;28;20761;-77
2021/05/12 07:53:03;;;;;;;4.90;1.70;;;16.90;99.90;;;;;;5035254;28;20041;-78
2021/05/12 07:55:29;;;;;;;3.90;1.50;;;17.00;99.90;;;;;;5034791;28;20386;-82
2021/05/12 07:57:56;;;;;;;6.05;2.72;;;16.90;99.90;;;;;;5035013;28;20486;-74
2021/05/12 08:00:23;;;;;;;5.05;1.85;;;16.80;99.90;;;;;;5031562;28;20083;-86
2021/05/12 08:02:49;;;;;;;6.13;1.92;;;16.90;99.90;;;;;;5020561;28;20075;-75
2021/05/12 08:05:15;;;;;;;2.50;1.60;;;16.80;99.90;;;;;;5027154;28;20425;-81
2021/05/12 08:07:41;;;;;;;5.10;2.35;;;16.70;99.90;;;;;;5024820;28;20046;-81
2021/05/12 08:10:07;;;;;;;7.43;1.98;;;16.70;99.90;;;;;;5029369;28;20025;-76
2021/05/12 08:12:33;;;;;;;7.93;2.25;;;16.60;99.90;;;;;;5022722;28;20087;-79
2021/05/12 08:14:59;;;;;;;6.65;2.33;;;16.50;99.90;;;;;;5017063;28;20030;-81
2021/05/12 08:17:25;;;;;;;3.10;2.05;;;16.50;99.90;;;;;;5015362;28;20067;-73
2021/05/12 08:19:51;;;;;;;4.68;2.03;;;16.60;99.90;;;;;;5032609;28;20123;-81
2021/05/12 08:22:16;;;;;;;3.97;2.60;;;16.60;99.90;;;;;;5033467;28;20037;-84
2021/05/12 08:24:42;;;;;;;8.02;2.60;;;16.60;99.90;;;;;;5029625;28;20033;-84
2021/05/12 08:27:08;;;;;;;5.18;2.50;;;16.50;99.90;;;;;;5024954;28;20140;-82
2021/05/12 08:29:40;;;;;;;3.05;2.10;;;16.60;99.90;;;;;;5033993;28;20030;-82
2021/05/12 08:32:07;;;;;;;4.20;2.42;;;16.70;99.90;;;;;;5034433;28;20052;-84
2021/05/12 08:34:33;;;;;;;7.97;2.47;;;16.80;99.90;;;;;;5032179;28;20021;-83
2021/05/12 08:37:00;;;;;;;9.73;2.47;;;16.90;99.90;;;;;;5021522;28;20141;-86
2021/05/12 08:39:27;;;;;;;5.20;2.80;;;16.90;99.90;;;;;;5019663;28;20061;-87
2021/05/12 08:41:53;;;;;;;14.30;2.50;;;17.00;99.90;;;;;;5027819;28;20050;-86
2021/05/12 08:44:20;;;;;;;9.10;2.65;;;17.20;99.90;;;;;;5021786;28;20026;-83
2021/05/12 08:46:48;;;;;;;4.25;2.47;;;17.40;99.90;;;;;;5032423;28;20037;-82
2021/05/12 08:49:16;;;;;;;5.63;2.20;;;17.50;99.90;;;;;;5029920;28;20030;-83
2021/05/12 08:51:43;;;;;;;8.07;2.30;;;17.60;99.90;;;;;;5028577;28;20095;-76
2021/05/12 08:54:10;;;;;;;4.80;2.70;;;17.70;99.90;;;;;;5030169;28;20029;-83
2021/05/12 08:56:35;;;;;;;2.75;2.22;;;17.80;99.90;;;;;;5020661;28;20034;-83
2021/05/12 08:59:02;;;;;;;5.38;2.60;;;17.90;99.90;;;;;;5022701;28;20083;-76
2021/05/12 09:01:29;;;;;;;8.98;2.22;;;17.80;99.90;;;;;;5029506;28;20492;-83
2021/05/12 09:03:55;;;;;;;3.33;2.38;;;17.60;99.90;;;;;;5018137;28;20061;-74
2021/05/12 09:06:22;;;;;;;5.75;2.42;;;17.50;99.90;;;;;;5017089;28;20065;-82
2021/05/12 09:08:49;;;;;;;9.77;3.35;;;17.40;99.90;;;;;;5017978;28;20018;-84
2021/05/12 09:11:15;;;;;;;9.73;3.08;;;17.30;99.90;;;;;;5032696;28;20032;-84
2021/05/12 09:13:44;;;;;;;7.18;2.75;;;17.30;99.90;;;;;;5029815;28;20477;-79
2021/05/12 09:16:21;;;;;;;10.80;3.90;;;17.20;99.90;;;;;;5025632;28;20037;-78
2021/05/12 09:18:48;;;;;;;7.35;2.90;;;17.10;99.90;;;;;;5024350;28;20389;-72
2021/05/12 09:21:15;;;;;;;6.65;3.78;;;17.00;99.90;;;;;;5021138;28;20037;-82
2021/05/12 09:23:43;;;;;;;10.93;3.50;;;16.90;99.90;;;;;;5021672;28;20034;-74
2021/05/12 09:26:16;;;;;;;5.60;2.35;;;16.90;99.90;;;;;;5020264;28;20048;-85
2021/05/12 09:28:42;;;;;;;9.13;3.13;;;16.60;99.90;;;;;;5021236;28;20029;-84
2021/05/12 09:31:11;;;;;;;9.90;3.22;;;16.30;99.90;;;;;;5029011;28;20029;-84
2021/05/12 09:33:43;;;;;;;13.20;2.53;;;16.10;99.90;;;;;;5031895;28;20486;-85
2021/05/12 09:36:10;;;;;;;7.15;3.13;;;16.00;99.90;;;;;;5026593;28;20037;-75
2021/05/12 09:38:37;;;;;;;9.52;2.90;;;15.90;99.90;;;;;;5027638;28;20485;-81
2021/05/12 09:41:11;;;;;;;9.68;3.13;;;15.90;99.90;;;;;;5032656;28;20457;-80
2021/05/12 09:43:48;;;;;;;7.00;2.85;;;15.90;99.90;;;;;;5024260;28;20030;-82
2021/05/12 09:46:20;;;;;;;16.90;3.13;;;15.80;99.90;;;;;;5029735;28;20386;-87
2021/05/12 09:48:47;;;;;;;10.27;3.45;;;15.70;99.90;;;;;;5024107;28;20099;-78
2021/05/12 09:51:20;;;;;;;12.02;3.70;;;15.70;99.90;;;;;;5031367;28;20367;-81
2021/05/12 09:54:04;;;;;;;5.32;3.55;;;15.60;99.90;;;;;;5031055;28;20021;-76
2021/05/12 09:56:43;;;;;;;15.32;4.00;;;15.60;99.90;;;;;;5029533;28;20457;-87
2021/05/12 09:59:21;;;;;;;6.03;3.20;;;15.60;99.90;;;;;;5027822;28;20036;-88
2021/05/12 10:01:55;;;;;;;13.93;3.10;;;15.60;99.90;;;;;;5024718;28;20030;-86
2021/05/12 10:04:24;;;;;;;5.55;3.72;;;15.60;99.90;;;;;;5029269;28;20029;-84
2021/05/12 10:06:53;;;;;;;10.00;3.80;;;15.50;99.90;;;;;;5032134;28;20496;-85
2021/05/12 10:09:23;;;;;;;10.75;4.78;;;15.50;99.90;;;;;;5029643;28;20041;-85
2021/05/12 10:12:06;;;;;;;9.70;3.83;;;15.60;99.90;;;;;;5014496;28;20065;-84
2021/05/12 10:14:33;;;;;;;;;;;15.60;99.90;;;;;;5022352;28;20034;-80
2021/05/12 10:17:00;;;;;;;6.47;3.78;;;15.60;99.90;;;;;;5015459;28;19929;-86
2021/05/12 10:19:26;;;;;;;15.00;4.65;;;15.70;99.90;;;;;;5032921;28;20115;-87
2021/05/12 10:21:53;;;;;;;5.57;3.60;;;15.70;99.90;;;;;;5031022;28;20084;-84
2021/05/12 10:24:18;;;;;;;27.33;3.95;;;15.70;99.90;;;;;;5022623;28;20100;-77
2021/05/12 10:26:45;;;;;;;9.70;3.90;;;15.70;99.90;;;;;;5023395;28;20145;-86
2021/05/12 10:29:18;;;;;;;5.68;3.28;;;15.80;99.90;;;;;;5025334;28;20525;-87
2021/05/12 10:31:44;;;;;;;6.43;3.50;;;15.80;99.90;;;;;;5021588;28;20048;-87
2021/05/12 10:34:10;;;;;;;15.52;4.47;;;15.70;99.90;;;;;;5030662;28;20474;-84
2021/05/12 10:36:36;;;;;;;11.70;3.78;;;15.70;99.90;;;;;;5031529;28;20030;-71
2021/05/12 10:39:04;;;;;;;9.10;3.85;;;15.70;99.90;;;;;;5029463;28;20061;-74
2021/05/12 10:41:50;;;;;;;7.35;3.75;;;15.80;99.90;;;;;;5028841;28;20545;-85
2021/05/12 10:44:36;;;;;;;14.57;5.47;;;15.80;99.90;;;;;;5026969;28;20410;-85
2021/05/12 10:47:14;;;;;;;13.15;4.90;;;15.90;99.90;;;;;;5030902;28;20409;-82
2021/05/12 10:49:53;;;;;;;10.18;5.07;;;16.00;99.90;;;;;;5026192;28;20804;-74
2021/05/12 10:52:19;;;;;;;12.63;4.95;;;16.00;99.90;;;;;;5021714;28;20029;-85
2021/05/12 10:54:52;;;;;;;10.23;4.20;;;16.10;99.90;;;;;;5029569;28;20048;-85
2021/05/12 10:57:46;;;;;;;12.70;4.22;;;16.10;99.90;;;;;;5019785;28;20437;-85
2021/05/12 11:00:14;;;;;;;8.20;3.97;;;16.00;99.90;;;;;;5029838;28;20036;-87
2021/05/12 11:03:01;;;;;;;9.43;5.15;;;16.00;99.90;;;;;;5028409;28;20037;-85
2021/05/12 11:06:00;;;;;;;8.38;4.80;;;15.80;99.90;;;;;;5028526;28;20030;-84
2021/05/12 11:08:26;;;;;;;12.55;5.20;;;15.70;99.90;;;;;;5030819;28;20029;-82
2021/05/12 11:11:02;;;;;;;15.77;4.78;;;15.70;99.90;;;;;;5029251;28;20034;-85
2021/05/12 11:13:30;;;;;;;8.88;5.82;;;15.70;99.90;;;;;;5020656;28;20030;-74
2021/05/12 11:15:59;;;;;;;12.82;6.05;;;15.70;99.90;;;;;;5031114;28;20068;-82
2021/05/12 11:18:37;;;;;;;15.52;6.80;;;15.80;99.90;;;;;;5031819;28;20033;-84
2021/05/12 11:21:41;;;;;;;10.75;5.80;;;15.80;99.90;;;;;;5031612;28;20054;-83
2021/05/12 11:24:11;;;;;;;13.32;6.40;;;15.90;99.90;;;;;;5024659;28;20040;-70
2021/05/12 11:31:26;;;;;;;26.13;8.30;;;16.00;99.90;;;;;;5027951;28;20156;-76
2021/05/12 11:31:57;;;;;;;13.10;7.47;;;16.10;99.90;;;;;;5030560;28;20037;-85
2021/05/12 11:34:23;;;;;;;12.13;5.35;;;16.20;99.90;;;;;;5030716;28;20034;-85
2021/05/12 11:36:49;;;;;;;9.75;4.15;;;16.20;99.90;;;;;;5026098;28;20041;-80
2021/05/12 11:39:15;;;;;;;9.90;4.55;;;16.30;99.90;;;;;;5031047;28;20033;-81
2021/05/12 11:41:41;;;;;;;9.35;4.28;;;16.40;99.90;;;;;;5031649;28;20493;-84
2021/05/12 11:44:07;;;;;;;7.97;4.50;;;16.40;99.90;;;;;;5020467;28;20469;-79
2021/05/12 11:46:36;;;;;;;11.25;4.68;;;16.50;99.90;;;;;;5030007;28;20091;-78
2021/05/12 11:49:09;;;;;;;15.73;4.28;;;16.50;99.90;;;;;;5029963;28;20572;-84
2021/05/12 11:51:42;;;;;;;7.50;2.55;;;16.60;99.90;;;;;;5031096;28;20033;-79
2021/05/12 11:54:15;;;;;;;6.38;4.18;;;16.50;99.90;;;;;;5014847;28;20109;-84
2021/05/12 11:56:46;;;;;;;8.43;3.35;;;16.50;99.90;;;;;;5025548;28;20053;-81
2021/05/12 11:59:20;;;;;;;10.93;3.28;;;16.50;99.90;;;;;;5024798;28;20026;-84
2021/05/12 12:01:48;;;;;;;8.73;3.55;;;16.50;99.90;;;;;;5031691;28;20030;-74
2021/05/12 12:06:43;;;;;;;8.32;3.75;;;16.50;99.90;;;;;;5031324;28;20025;-81
2021/05/12 12:09:12;;;;;;;5.40;3.90;;;16.50;99.90;;;;;;5033204;28;20040;-84
2021/05/12 12:11:39;;;;;;;8.68;4.80;;;16.50;99.90;;;;;;5031932;28;20044;-84
2021/05/12 12:14:06;;;;;;;6.40;4.65;;;16.50;99.90;;;;;;5017756;28;20041;-84
2021/05/12 12:16:34;;;;;;;8.70;5.28;;;16.60;99.90;;;;;;5026775;28;20033;-83
2021/05/12 12:19:10;;;;;;;9.68;4.68;;;16.60;99.90;;;;;;5033575;28;20048;-84
2021/05/12 12:21:36;;;;;;;12.23;5.45;;;16.80;99.90;;;;;;5025702;28;20041;-84
2021/05/12 12:24:14;;;;;;;10.98;5.38;;;16.90;99.90;;;;;;5032900;28;20084;-83
2021/05/12 12:26:44;;;;;;;8.90;5.43;;;17.10;99.90;;;;;;5026188;28;20030;-87
2021/05/12 12:29:11;;;;;;;10.02;5.05;;;17.40;99.90;;;;;;5013525;28;20041;-83
2021/05/12 12:31:41;;;;;;;8.10;4.13;;;17.60;99.90;;;;;;5028850;28;20030;-87
2021/05/12 12:34:16;;;;;;;9.80;4.45;;;18.00;99.90;;;;;;5029244;28;20123;-85
2021/05/12 12:36:49;;;;;;;9.00;5.07;;;18.30;99.90;;;;;;5023115;28;20052;-84
2021/05/12 12:39:15;;;;;;;6.97;4.60;;;18.60;99.90;;;;;;5033880;28;20030;-87
2021/05/12 12:41:46;;;;;;;8.15;5.18;;;18.90;99.90;;;;;;5029387;28;20061;-88
2021/05/12 12:44:11;;;;;;;7.40;5.22;;;19.10;99.90;;;;;;5028393;28;20022;-81
2021/05/12 12:46:38;;;;;;;8.00;5.53;;;19.30;99.90;;;;;;5033366;28;20577;-86
2021/05/12 12:49:04;;;;;;;9.05;6.28;;;19.30;99.90;;;;;;5024722;28;20497;-83
2021/05/12 12:51:48;;;;;;;8.65;6.50;;;19.20;99.90;;;;;;5025186;28;20042;-83
2021/05/12 12:54:14;;;;;;;9.02;6.50;;;19.30;99.90;;;;;;5028996;28;20422;-87